Niantic, IL (62551)

6:18 PM CDT on August 31, 2015 (GMT -0500)
APPLEVILLE | | Change Station
CLOSE
Current Station
Personal Weather Station
Location: Mt Auburn, IL
Elevation: 607 ft
Nearby Weather Stations

Elev 607 ft 39.80 °N, 89.14 °W | Updated 2 minutes ago

Partly Cloudy
Partly Cloudy
84.7 °F
Feels Like 82 °F
N
0.0
Wind Variable Wind from South
Gusts 4.9 mph

Today
High -- | Low -- °F
--% Chance of Precip.
Yesterday
High -- | Low -- °F
Precip. -- in
6:23 AM 7:29 PM
Waning Gibbous, 93% visible
Pressure 30.01 in
Visibility 10.0 miles
Clouds Clear
Heat Index 82 °F
Dew Point 24 °F
Humidity 11%
Rainfall Not available.
Snow Depth Not available.
UV 1 out of 12
Pollen 10.60 out of 12
Air Quality Not available.
Flu Activity Not available.
METAR KDEC 312254Z 19007KT 10SM CLR 29/21 A3003 RMK AO2 SLP162 T02940206
Pressure 30.01 in
Visibility 10.0 miles
Clouds Clear
Heat Index 82 °F
Dew Point 24 °F
Humidity 11%
Rainfall Not available.
Snow Depth Not available.
UV 1 out of 12
Pollen 10.60 out of 12
Air Quality Not available.
Flu Activity Not available.
METAR KDEC 312254Z 19007KT 10SM CLR 29/21 A3003 RMK AO2 SLP162 T02940206

10-Day Weather Forecast

×

Almanac

Astronomy

Aug. 31, 2015 Rise Set
Actual Time
Civil Twilight
Nautical Twilight
Astronomical Twilight
Moon
Length of Visible Light
Length of Day
Tomorrow will be .
, % of the Moon is Illuminated

Today's Extremes

State Highs State Lows

Community

WunderPhotos

Upload Photos

1,851,390 photos uploaded!

WunderBlogs® & News

Nearby

Air Quality

  Air Quality AQ Index Pollutant
Not available.

Snow Depth

Station Depth Elevation

Earthquake Activity

City Distance Mag. Time & Date
Minimum magnitude displayed is 2.5.

Coastal Water Temperatures

Place Temperature

Stations

Nearby Weather Stations

Station Location Temp. Windchill Dew Point Humidity Wind Precip. Elev Updated Type